Time;durP1;ratioP1;P1;durP2;ratioP2;P2;SDS_P1;SDS_P2;PMS_P1;PMS_P2;Temp;Humidity;BMP_temperature;BMP_pressure;BME280_temperature;BME280_humidity;BME280_pressure;Samples;Min_cycle;Max_cycle;Signal;HPM_P1;HPM_P2
2023/04/20 00:01:25;;;;;;;1999.90;999.90;;;;;;;10.80;100.00;97665.25;5133642;27;20114;-75
2023/04/20 00:03:51;;;;;;;1999.90;999.90;;;;;;;10.84;100.00;97670.94;5115044;27;20076;-75
2023/04/20 00:06:16;;;;;;;1999.90;999.90;;;;;;;10.79;100.00;97669.09;5133850;27;20075;-74
2023/04/20 00:08:42;;;;;;;1999.90;999.90;;;;;;;10.79;100.00;97671.00;5115449;27;20397;-74
2023/04/20 00:11:08;;;;;;;1999.90;999.90;;;;;;;10.82;100.00;97670.41;5133608;27;20496;-74
2023/04/20 00:13:33;;;;;;;1999.90;999.90;;;;;;;10.79;100.00;97662.78;5134496;27;20051;-77
2023/04/20 00:15:59;;;;;;;1999.90;999.90;;;;;;;10.77;100.00;97666.63;5133987;27;20031;-75
2023/04/20 00:18:24;;;;;;;1999.90;999.90;;;;;;;10.69;100.00;97661.88;5134043;27;20357;-75
2023/04/20 00:20:49;;;;;;;1999.90;999.90;;;;;;;10.71;100.00;97656.13;5134137;27;20528;-75
2023/04/20 00:23:15;;;;;;;1999.90;999.90;;;;;;;10.74;100.00;97659.03;5135274;27;20031;-75
2023/04/20 00:25:40;;;;;;;1999.90;999.90;;;;;;;10.72;100.00;97655.00;5135160;27;20035;-76
2023/04/20 00:28:05;;;;;;;1999.90;999.90;;;;;;;10.74;100.00;97653.56;5137878;27;20022;-76
2023/04/20 00:30:31;;;;;;;1999.90;999.90;;;;;;;10.73;100.00;97654.69;5134638;27;20434;-76
2023/04/20 00:32:56;;;;;;;1999.90;999.90;;;;;;;10.70;100.00;97652.56;5132774;27;20019;-75
2023/04/20 00:35:22;;;;;;;1999.90;999.90;;;;;;;10.68;100.00;97660.25;5133051;27;20050;-76
2023/04/20 00:37:47;;;;;;;1999.90;999.90;;;;;;;10.64;100.00;97652.97;5133421;27;20468;-78
2023/04/20 00:40:12;;;;;;;1999.90;999.90;;;;;;;10.68;100.00;97652.06;5133312;27;20065;-77
2023/04/20 00:42:39;;;;;;;1999.90;999.90;;;;;;;10.56;100.00;97638.06;5112907;27;20028;-76
2023/04/20 00:45:05;;;;;;;1999.90;999.90;;;;;;;10.65;100.00;97652.66;5113082;28;20031;-74
2023/04/20 00:47:30;;;;;;;1999.90;999.90;;;;;;;10.63;100.00;97649.44;5114555;28;20036;-75
2023/04/20 00:49:56;;;;;;;1999.90;999.90;;;;;;;10.54;100.00;97640.31;5118354;28;20053;-75
2023/04/20 00:52:21;;;;;;;1999.90;999.90;;;;;;;10.49;100.00;97650.53;5111408;28;20024;-74
2023/04/20 00:54:47;;;;;;;1999.90;999.90;;;;;;;10.51;100.00;97634.63;5112399;28;20023;-75
2023/04/20 00:57:13;;;;;;;1999.90;999.90;;;;;;;10.52;100.00;97649.94;5112227;28;20081;-74
2023/04/20 00:59:40;;;;;;;1999.90;999.90;;;;;;;10.45;100.00;97636.66;5112363;28;20027;-74
2023/04/20 01:02:05;;;;;;;1999.90;999.90;;;;;;;10.42;100.00;97648.19;5111728;28;20999;-74
2023/04/20 01:04:31;;;;;;;1999.90;999.90;;;;;;;10.43;100.00;97641.59;5112127;28;20507;-75
2023/04/20 01:06:56;;;;;;;1999.90;999.90;;;;;;;10.41;100.00;97641.09;5093984;28;20068;-76
2023/04/20 01:09:21;;;;;;;1999.90;999.90;;;;;;;10.37;100.00;97637.34;5112867;28;20471;-76
2023/04/20 01:11:47;;;;;;;1999.90;999.90;;;;;;;10.29;100.00;97635.31;5127849;27;20031;-75
2023/04/20 01:14:12;;;;;;;1999.90;999.90;;;;;;;10.31;100.00;97641.28;5112095;28;20102;-74
2023/04/20 01:16:38;;;;;;;1999.90;999.90;;;;;;;10.26;100.00;97646.84;5111782;28;20024;-76
2023/04/20 01:19:03;;;;;;;1999.90;999.90;;;;;;;10.25;100.00;97639.75;5111844;28;20380;-75
2023/04/20 01:21:28;;;;;;;1999.90;999.90;;;;;;;10.22;100.00;97640.34;5111774;28;20392;-74
2023/04/20 01:23:54;;;;;;;1999.90;999.90;;;;;;;10.20;100.00;97631.66;5111896;28;20022;-74
2023/04/20 01:26:22;;;;;;;1999.90;999.90;;;;;;;10.28;100.00;97649.25;5111555;28;20032;-76
2023/04/20 01:28:47;;;;;;;1999.90;999.90;;;;;;;10.28;100.00;97644.59;5093155;28;20024;-77
2023/04/20 01:31:12;;;;;;;1999.90;999.90;;;;;;;10.27;100.00;97643.00;5111277;28;20033;-76
2023/04/20 01:33:39;;;;;;;1999.90;999.90;;;;;;;10.26;100.00;97641.38;5112108;28;20118;-75
2023/04/20 01:36:06;;;;;;;1999.90;999.90;;;;;;;10.27;100.00;97644.94;5117590;28;20032;-82
2023/04/20 01:38:33;;;;;;;1999.90;999.90;;;;;;;10.27;100.00;97648.47;5119623;28;20068;-76
2023/04/20 01:41:00;;;;;;;1999.90;999.90;;;;;;;10.17;100.00;97638.53;5116634;28;20023;-75
2023/04/20 01:43:25;;;;;;;1999.90;999.90;;;;;;;10.18;100.00;97642.06;5113660;28;20049;-76
2023/04/20 01:45:51;;;;;;;1999.90;999.90;;;;;;;10.22;100.00;97640.34;5114239;28;20395;-74
2023/04/20 01:48:16;;;;;;;1999.90;999.90;;;;;;;10.20;100.00;97650.78;5114509;28;20023;-76
2023/04/20 01:50:41;;;;;;;1999.90;999.90;;;;;;;10.18;100.00;97645.59;5115877;28;20096;-75
2023/04/20 01:53:07;;;;;;;1999.90;999.90;;;;;;;10.09;100.00;97630.16;5131789;28;20031;-75
2023/04/20 01:55:33;;;;;;;1999.90;999.90;;;;;;;10.03;100.00;97642.28;5114493;28;20472;-75
2023/04/20 01:57:58;;;;;;;1999.90;999.90;;;;;;;10.10;100.00;97645.47;5114124;28;20031;-75
2023/04/20 02:00:23;;;;;;;1999.90;999.90;;;;;;;10.00;100.00;97637.44;5113501;28;20028;-75
2023/04/20 02:02:49;;;;;;;1999.90;999.90;;;;;;;10.04;100.00;97630.25;5113903;28;20035;-79
2023/04/20 02:05:14;;;;;;;1999.90;999.90;;;;;;;10.06;100.00;97639.78;5111665;28;20031;-76
2023/04/20 02:07:40;;;;;;;1999.90;999.90;;;;;;;10.03;100.00;97636.81;5111162;28;20026;-74
2023/04/20 02:10:06;;;;;;;1999.90;999.90;;;;;;;9.97;100.00;97636.09;5113951;28;20050;-76
2023/04/20 02:12:31;;;;;;;1999.90;999.90;;;;;;;10.00;100.00;97638.25;5115421;28;20062;-75
2023/04/20 02:14:56;;;;;;;1999.90;999.90;;;;;;;9.97;100.00;97632.56;5114916;28;20047;-74
2023/04/20 02:17:22;;;;;;;1999.90;999.90;;;;;;;9.87;100.00;97627.25;5130793;27;20425;-76
2023/04/20 02:19:47;;;;;;;1999.90;999.90;;;;;;;9.89;100.00;97627.78;5115222;28;20027;-75
2023/04/20 02:22:12;;;;;;;1999.90;999.90;;;;;;;9.83;100.00;97634.44;5114935;28;20051;-75
2023/04/20 02:24:38;;;;;;;1999.90;999.90;;;;;;;9.86;100.00;97631.94;5114926;28;20098;-76
2023/04/20 02:27:04;;;;;;;1999.90;999.90;;;;;;;9.81;100.00;97628.47;5114592;28;20437;-73
2023/04/20 02:29:30;;;;;;;1999.90;999.90;;;;;;;9.81;100.00;97634.72;5114760;28;20453;-76
2023/04/20 02:31:55;;;;;;;1999.90;999.90;;;;;;;9.84;100.00;97634.13;5114723;28;20059;-75
2023/04/20 02:34:21;;;;;;;1999.90;999.90;;;;;;;9.87;100.00;97633.53;5114748;28;20016;-73
2023/04/20 02:36:47;;;;;;;1999.90;999.90;;;;;;;9.85;100.00;97629.50;5114779;28;20031;-75
2023/04/20 02:39:13;;;;;;;1999.90;999.90;;;;;;;9.86;100.00;97636.59;5115053;28;20020;-73
2023/04/20 02:41:38;;;;;;;1999.90;999.90;;;;;;;9.76;100.00;97625.81;5096849;28;20030;-74
2023/04/20 02:44:04;;;;;;;1999.90;999.90;;;;;;;9.82;100.00;97641.84;5114847;28;20156;-76
2023/04/20 02:46:29;;;;;;;1999.90;999.90;;;;;;;9.84;100.00;97633.31;5114642;28;20055;-75
2023/04/20 02:48:55;;;;;;;1999.90;999.90;;;;;;;9.80;100.00;97633.13;5114796;28;20032;-74
2023/04/20 02:51:20;;;;;;;1999.90;999.90;;;;;;;9.76;100.00;97626.63;5114667;28;20054;-76
2023/04/20 02:53:46;;;;;;;1999.90;999.90;;;;;;;9.74;100.00;97633.50;5115143;28;20045;-74
2023/04/20 02:56:11;;;;;;;1999.90;999.90;;;;;;;9.71;100.00;97634.09;5115165;28;20139;-74
2023/04/20 02:58:36;;;;;;;1999.90;999.90;;;;;;;9.75;100.00;97632.38;5115114;28;20016;-75
2023/04/20 03:01:03;;;;;;;1999.90;999.90;;;;;;;9.73;100.00;97631.88;5114439;28;20043;-75
2023/04/20 03:03:28;;;;;;;1999.90;999.90;;;;;;;9.77;100.00;97632.91;5114495;28;20024;-75
2023/04/20 03:05:54;;;;;;;1999.90;999.90;;;;;;;9.79;100.00;97631.50;5114484;28;20118;-76
2023/04/20 03:08:20;;;;;;;1999.90;999.90;;;;;;;9.72;100.00;97613.88;5114973;28;20479;-76
2023/04/20 03:10:45;;;;;;;1999.90;999.90;;;;;;;9.74;100.00;97625.31;5115545;28;20031;-72
2023/04/20 03:13:10;;;;;;;1999.90;999.90;;;;;;;9.76;100.00;97625.81;5116154;28;20046;-76
2023/04/20 03:15:36;;;;;;;1999.90;999.90;;;;;;;9.77;100.00;97627.44;5119206;28;20103;-77
2023/04/20 03:18:01;;;;;;;1999.90;999.90;;;;;;;9.76;100.00;97636.75;5115982;28;20154;-75
2023/04/20 03:20:26;;;;;;;1999.90;999.90;;;;;;;9.67;100.00;97629.25;5113595;28;20100;-76
2023/04/20 03:22:52;;;;;;;1999.90;999.90;;;;;;;9.67;100.00;97628.44;5114424;28;20031;-74
2023/04/20 03:25:20;;;;;;;1999.90;999.90;;;;;;;9.71;100.00;97640.34;5114282;28;20031;-73
2023/04/20 03:27:46;;;;;;;1999.90;999.90;;;;;;;9.61;100.00;97630.44;5114256;28;20476;-75
2023/04/20 03:30:12;;;;;;;1999.90;999.90;;;;;;;9.70;100.00;97633.28;5114161;28;20034;-76
2023/04/20 03:32:39;;;;;;;1999.90;999.90;;;;;;;9.63;100.00;97632.84;5114005;28;20028;-75
2023/04/20 03:35:05;;;;;;;1999.90;999.90;;;;;;;9.64;100.00;97634.47;5113877;28;20027;-75
2023/04/20 03:37:30;;;;;;;1999.90;999.90;;;;;;;9.63;100.00;97644.59;5118703;27;20107;-73
2023/04/20 03:39:56;;;;;;;1999.90;999.90;;;;;;;9.67;100.00;97637.44;5135276;27;20073;-75
2023/04/20 03:42:21;;;;;;;1999.90;999.90;;;;;;;9.69;100.00;97646.13;5128569;27;20027;-78
2023/04/20 03:44:46;;;;;;;1999.90;999.90;;;;;;;9.66;100.00;97641.25;5118756;27;20034;-84
2023/04/20 03:47:12;;;;;;;1999.90;999.90;;;;;;;9.62;100.00;97642.94;5125323;27;20056;-75
2023/04/20 03:49:37;;;;;;;1999.90;999.90;;;;;;;9.65;100.00;97647.00;5134311;27;20042;-74
2023/04/20 03:52:03;;;;;;;1999.90;999.90;;;;;;;9.66;100.00;97644.00;5119530;27;20038;-76
2023/04/20 03:54:28;;;;;;;1999.90;999.90;;;;;;;9.67;100.00;97653.81;5113415;28;20026;-75
2023/04/20 03:56:54;;;;;;;1999.90;999.90;;;;;;;9.67;100.00;97647.53;5113793;28;20473;-77
2023/04/20 03:59:19;;;;;;;1999.90;999.90;;;;;;;9.64;100.00;97646.22;5113218;28;20035;-76
2023/04/20 04:01:45;;;;;;;1999.90;999.90;;;;;;;9.66;100.00;97660.38;5113741;28;20035;-75
2023/04/20 04:04:10;;;;;;;1999.90;999.90;;;;;;;9.58;100.00;97641.94;5109363;27;20027;-75
2023/04/20 04:06:35;;;;;;;1999.90;999.90;;;;;;;9.60;100.00;97649.81;5133468;27;20023;-75
2023/04/20 04:09:01;;;;;;;1999.90;999.90;;;;;;;9.66;100.00;97665.03;5133273;27;20031;-75
2023/04/20 04:11:28;;;;;;;1999.90;999.90;;;;;;;9.65;100.00;97669.66;5133319;27;20068;-76
2023/04/20 04:13:54;;;;;;;1999.90;999.90;;;;;;;9.72;100.00;97671.22;5132587;27;20027;-75
2023/04/20 04:16:19;;;;;;;1999.90;999.90;;;;;;;9.62;100.00;97664.81;5132465;27;20387;-76
2023/04/20 04:18:46;;;;;;;1999.90;999.90;;;;;;;9.58;100.00;97662.97;5132815;27;20023;-75
2023/04/20 04:21:12;;;;;;;1999.90;999.90;;;;;;;9.50;100.00;97656.25;5132595;27;20025;-75
2023/04/20 04:23:37;;;;;;;1999.90;999.90;;;;;;;9.49;100.00;97653.84;5132847;27;20031;-75
2023/04/20 04:26:03;;;;;;;1999.90;999.90;;;;;;;9.50;100.00;97666.34;5132739;27;20357;-73
2023/04/20 04:28:30;;;;;;;1999.90;999.90;;;;;;;9.47;100.00;97656.03;5132805;27;20020;-75
2023/04/20 04:30:55;;;;;;;1999.90;999.90;;;;;;;9.54;100.00;97662.75;5132136;27;20035;-75
2023/04/20 04:33:21;;;;;;;1999.90;999.90;;;;;;;9.47;100.00;97675.13;5132426;27;20034;-74
2023/04/20 04:35:47;;;;;;;1999.90;999.90;;;;;;;9.48;100.00;97669.41;5133427;27;20019;-76
2023/04/20 04:38:12;;;;;;;1999.90;999.90;;;;;;;9.39;100.00;97675.81;5134302;27;20134;-75
2023/04/20 04:40:40;;;;;;;1999.90;999.90;;;;;;;9.46;100.00;97684.44;5133516;27;20082;-75
2023/04/20 04:43:06;;;;;;;1999.90;999.90;;;;;;;9.46;100.00;97668.84;5132309;27;20026;-74
2023/04/20 04:45:31;;;;;;;1999.90;999.90;;;;;;;9.55;100.00;97674.50;5132209;27;20012;-74
2023/04/20 04:47:57;;;;;;;1999.90;999.90;;;;;;;9.60;100.00;97675.22;5131934;27;20084;-74
2023/04/20 04:50:23;;;;;;;1999.90;999.90;;;;;;;9.67;100.00;97680.31;5132520;27;20077;-73
2023/04/20 04:52:48;;;;;;;1999.90;999.90;;;;;;;9.69;100.00;97683.53;5131511;27;20080;-72
2023/04/20 04:55:14;;;;;;;1999.90;999.90;;;;;;;9.64;100.00;97687.19;5131465;27;20135;-74
2023/04/20 04:57:39;;;;;;;1999.90;999.90;;;;;;;9.63;100.00;97677.34;5131195;27;20110;-73
2023/04/20 05:00:11;;;;;;;1999.90;999.90;;;;;;;9.73;100.00;97691.97;5131596;27;20019;-73
2023/04/20 05:02:37;;;;;;;1999.90;999.90;;;;;;;9.65;100.00;97691.50;5132175;27;20491;-73
2023/04/20 05:05:02;;;;;;;1999.90;999.90;;;;;;;9.60;100.00;97682.59;5131706;27;20105;-76
2023/04/20 05:07:28;;;;;;;1999.90;999.90;;;;;;;9.56;100.00;97687.84;5131368;27;20057;-75
2023/04/20 05:09:54;;;;;;;1999.90;999.90;;;;;;;9.55;100.00;97691.66;5131142;27;20047;-75
2023/04/20 05:12:19;;;;;;;1999.90;999.90;;;;;;;9.48;100.00;97691.25;5131575;27;20032;-74
2023/04/20 05:14:44;;;;;;;1999.90;999.90;;;;;;;9.54;100.00;97698.25;5131502;27;20109;-76
2023/04/20 05:17:10;;;;;;;1999.90;999.90;;;;;;;9.55;100.00;97685.41;5131353;27;20027;-75
2023/04/20 05:19:35;;;;;;;1999.90;999.90;;;;;;;9.49;100.00;97686.59;5113674;27;20027;-75
2023/04/20 05:22:01;;;;;;;1999.90;999.90;;;;;;;9.48;100.00;97674.84;5131539;27;20526;-76
2023/04/20 05:24:26;;;;;;;1999.90;999.90;;;;;;;9.56;100.00;97700.66;5133040;27;20026;-74
2023/04/20 05:26:51;;;;;;;1999.90;999.90;;;;;;;9.58;100.00;97696.56;5130429;27;20104;-73
2023/04/20 05:29:17;;;;;;;1999.90;999.90;;;;;;;9.62;100.00;97692.09;5136361;27;20376;-75
2023/04/20 05:31:43;;;;;;;1999.90;999.90;;;;;;;9.60;100.00;97683.41;5128558;27;20075;-74
2023/04/20 05:34:09;;;;;;;1999.90;999.90;;;;;;;9.64;100.00;97691.81;5129405;27;20471;-76
2023/04/20 05:36:34;;;;;;;1999.90;999.90;;;;;;;9.71;100.00;97705.13;5129632;27;20019;-75
2023/04/20 05:39:00;;;;;;;1999.90;999.90;;;;;;;9.65;100.00;97696.97;5128512;28;20558;-74
2023/04/20 05:41:28;;;;;;;1999.90;999.90;;;;;;;9.74;100.00;97709.97;5128455;28;20027;-75
2023/04/20 05:43:54;;;;;;;1999.90;999.90;;;;;;;9.72;100.00;97707.53;5128827;27;20070;-74
2023/04/20 05:46:20;;;;;;;1999.90;999.90;;;;;;;9.77;100.00;97706.66;5130277;28;20051;-78
2023/04/20 05:48:46;;;;;;;1999.90;999.90;;;;;;;9.75;100.00;97709.66;5131775;28;20550;-76
2023/04/20 05:51:11;;;;;;;1999.90;999.90;;;;;;;9.82;100.00;97706.56;5130908;28;20114;-77
2023/04/20 05:53:37;;;;;;;1999.90;999.90;;;;;;;9.80;100.00;97715.06;5134123;28;20026;-78
2023/04/20 05:56:03;;;;;;;1999.90;999.90;;;;;;;9.91;100.00;97721.19;5136629;27;20098;-75
2023/04/20 05:58:30;;;;;;;1999.90;999.90;;;;;;;10.03;100.00;97722.34;5136299;27;20030;-74
2023/04/20 06:00:56;;;;;;;1999.90;999.90;;;;;;;10.16;98.97;97713.44;5143979;27;20023;-76
2023/04/20 06:03:22;;;;;;;1999.90;999.90;;;;;;;10.06;97.57;97731.88;5135064;27;20106;-80
2023/04/20 06:05:47;;;;;;;1999.90;999.90;;;;;;;10.08;98.55;97726.94;5133402;27;20031;-74
2023/04/20 06:08:12;;;;;;;1999.90;999.90;;;;;;;10.04;99.96;97726.72;5131421;27;20019;-78
2023/04/20 06:10:38;;;;;;;1999.90;999.90;;;;;;;10.23;99.84;97726.72;5131205;27;20527;-74
2023/04/20 06:13:04;;;;;;;1999.90;999.90;;;;;;;10.34;99.47;97719.94;5132234;27;20027;-74
2023/04/20 06:15:30;;;;;;;1999.90;999.90;;;;;;;10.18;99.82;97732.25;5131326;28;20407;-75
2023/04/20 06:17:55;;;;;;;1999.90;999.90;;;;;;;10.13;98.61;97735.03;5139035;27;20031;-76
2023/04/20 06:20:21;;;;;;;1999.90;999.90;;;;;;;10.14;99.16;97736.72;5145512;27;20372;-76
2023/04/20 06:22:47;;;;;;;1999.90;999.90;;;;;;;10.18;98.34;97733.06;5150754;27;20026;-74
2023/04/20 06:25:12;;;;;;;1999.90;999.90;;;;;;;10.21;98.63;97739.88;5150899;27;20026;-76
2023/04/20 06:27:38;;;;;;;1999.90;999.90;;;;;;;10.19;97.38;97739.34;5135776;27;20440;-75
2023/04/20 06:30:04;;;;;;;1999.90;999.90;;;;;;;10.19;96.79;97742.91;5114408;28;20027;-75
2023/04/20 06:32:30;;;;;;;1999.90;999.90;;;;;;;10.29;96.47;97744.66;5130269;27;20023;-75
2023/04/20 06:34:55;;;;;;;1999.90;999.90;;;;;;;10.27;97.63;97755.09;5129129;28;20076;-76
2023/04/20 06:37:20;;;;;;;1999.90;999.90;;;;;;;10.48;95.66;97753.63;5133739;27;20485;-76
2023/04/20 06:39:46;;;;;;;1999.90;999.90;;;;;;;10.43;93.80;97761.13;5150803;27;20491;-73
2023/04/20 06:42:12;;;;;;;1999.90;999.90;;;;;;;10.37;92.43;97746.69;5150655;27;20027;-76
2023/04/20 06:44:38;;;;;;;1999.90;999.90;;;;;;;10.34;93.71;97755.50;5151855;27;20106;-74
2023/04/20 06:47:03;;;;;;;1999.90;999.90;;;;;;;10.27;91.64;97752.34;5151829;27;20119;-75
2023/04/20 06:49:29;;;;;;;1999.90;999.90;;;;;;;10.33;91.89;97761.28;5151766;27;20461;-75
2023/04/20 06:51:54;;;;;;;1999.90;999.90;;;;;;;10.35;93.06;97759.84;5151596;27;20443;-75
2023/04/20 06:54:19;;;;;;;1999.90;999.90;;;;;;;10.30;93.54;97757.22;5152864;27;20527;-75
2023/04/20 06:56:45;;;;;;;1999.90;999.90;;;;;;;10.29;93.00;97755.59;5156967;27;20025;-75
2023/04/20 06:59:10;;;;;;;1999.90;999.90;;;;;;;10.34;93.86;97758.22;5157074;27;20160;-76
2023/04/20 07:01:35;;;;;;;1999.90;999.90;;;;;;;10.34;94.28;97760.16;5156174;27;20027;-76
2023/04/20 07:04:01;;;;;;;1999.90;999.90;;;;;;;10.37;94.68;97749.44;5156252;27;20027;-74
2023/04/20 07:06:27;;;;;;;1999.90;999.90;;;;;;;10.45;92.02;97756.97;5137397;27;20474;-75
2023/04/20 07:08:52;;;;;;;1999.90;999.90;;;;;;;10.46;92.11;97749.56;5170888;27;20022;-75
2023/04/20 07:11:18;;;;;;;1999.90;999.90;;;;;;;10.61;90.92;97758.34;5154276;27;20539;-75
2023/04/20 07:13:43;;;;;;;1999.90;999.90;;;;;;;10.77;89.87;97750.66;5154660;27;20026;-74
2023/04/20 07:16:09;;;;;;;1999.90;999.90;;;;;;;10.79;89.08;97758.56;5136089;27;20038;-75
2023/04/20 07:18:35;;;;;;;1999.90;999.90;;;;;;;10.63;89.56;97750.63;5154872;27;20110;-76
2023/04/20 07:21:00;;;;;;;1999.90;999.90;;;;;;;10.55;90.08;97747.78;5155064;27;20047;-75
2023/04/20 07:23:26;;;;;;;1999.90;999.90;;;;;;;10.63;91.25;97753.34;5154573;27;20034;-75
2023/04/20 07:25:51;;;;;;;1999.90;999.90;;;;;;;10.48;92.00;97747.34;5155684;27;20428;-81
2023/04/20 07:28:16;;;;;;;1999.90;999.90;;;;;;;10.53;91.95;97760.91;5157200;27;20027;-75
2023/04/20 07:30:41;;;;;;;1999.90;999.90;;;;;;;10.81;89.96;97756.34;5154364;27;20030;-75
2023/04/20 07:33:07;;;;;;;1999.90;999.90;;;;;;;10.72;90.09;97767.97;5154219;27;20014;-75
2023/04/20 07:35:33;;;;;;;1999.90;999.90;;;;;;;10.91;89.07;97772.56;5153914;27;20418;-76
2023/04/20 07:37:58;;;;;;;1999.90;999.90;;;;;;;10.75;89.48;97767.38;5153914;27;20023;-75
2023/04/20 07:40:24;;;;;;;1999.90;999.90;;;;;;;10.80;91.06;97771.94;5153896;27;20463;-76
2023/04/20 07:42:49;;;;;;;1999.90;999.90;;;;;;;10.82;88.68;97780.66;5128693;27;20024;-75
2023/04/20 07:45:15;;;;;;;1999.90;999.90;;;;;;;10.79;87.56;97764.03;5132036;27;20494;-75
2023/04/20 07:47:42;;;;;;;1999.90;999.90;;;;;;;10.84;87.28;97767.47;5133388;27;20034;-76
2023/04/20 07:50:08;;;;;;;1999.90;999.90;;;;;;;10.95;85.42;97773.59;5136960;27;20487;-75
2023/04/20 07:52:33;;;;;;;1999.90;999.90;;;;;;;10.79;86.76;97764.84;5137500;27;20076;-75
2023/04/20 07:54:59;;;;;;;1999.90;999.90;;;;;;;10.97;86.06;97776.81;5133167;27;20076;-75
2023/04/20 07:57:25;;;;;;;1999.90;999.90;;;;;;;10.99;86.72;97777.34;5133043;27;20031;-75
2023/04/20 07:59:50;;;;;;;1999.90;999.90;;;;;;;11.00;85.77;97771.56;5132582;27;20031;-75
2023/04/20 08:02:16;;;;;;;1999.90;999.90;;;;;;;11.05;84.60;97781.59;5132792;27;20500;-76
2023/04/20 08:04:43;;;;;;;1999.90;999.90;;;;;;;11.02;84.69;97779.47;5130842;27;20027;-74
2023/04/20 08:07:09;;;;;;;1999.90;999.90;;;;;;;11.05;85.04;97784.34;5149015;27;20027;-75
2023/04/20 08:09:34;;;;;;;1999.90;999.90;;;;;;;10.99;86.63;97793.78;5152874;27;20050;-76
2023/04/20 08:12:00;;;;;;;1999.90;999.90;;;;;;;11.03;84.71;97794.75;5153327;27;20019;-75
2023/04/20 08:14:25;;;;;;;1999.90;999.90;;;;;;;10.72;85.49;97776.16;5153179;27;20019;-74
2023/04/20 08:16:51;;;;;;;1999.90;999.90;;;;;;;10.67;86.07;97792.69;5134343;27;20040;-76
2023/04/20 08:19:16;;;;;;;1999.90;999.90;;;;;;;10.37;86.77;97792.38;5134899;27;20035;-81
2023/04/20 08:21:41;;;;;;;1999.90;999.90;;;;;;;10.43;86.54;97781.03;5153193;27;20038;-78
2023/04/20 08:24:08;;;;;;;1999.90;999.90;;;;;;;10.58;87.16;97796.41;5153647;27;20022;-77
2023/04/20 08:26:34;;;;;;;1999.90;999.90;;;;;;;10.72;86.21;97786.28;5153372;27;20039;-78
2023/04/20 08:29:00;;;;;;;1999.90;999.90;;;;;;;10.88;85.37;97784.09;5153415;27;20117;-76
2023/04/20 08:31:26;;;;;;;1999.90;999.90;;;;;;;10.84;87.53;97788.56;5121258;27;20026;-75
2023/04/20 08:33:51;;;;;;;1999.90;999.90;;;;;;;10.79;87.33;97792.19;5132157;27;20053;-78
2023/04/20 08:36:17;;;;;;;1999.90;999.90;;;;;;;10.79;84.42;97775.78;5132222;27;20027;-75
2023/04/20 08:38:43;;;;;;;1999.90;999.90;;;;;;;10.75;86.09;97780.22;5132211;27;20023;-80
2023/04/20 08:41:12;;;;;;;1999.90;999.90;;;;;;;10.65;86.37;97786.69;5132405;27;20027;-76
2023/04/20 08:43:37;;;;;;;1999.90;999.90;;;;;;;10.59;86.53;97782.41;5135281;27;20023;-76
2023/04/20 08:46:03;;;;;;;1999.90;999.90;;;;;;;10.47;86.89;97784.00;5132538;27;20557;-76
2023/04/20 08:48:35;;;;;;;1999.90;999.90;;;;;;;10.60;88.22;97794.16;5132014;27;20035;-77
2023/04/20 08:51:03;;;;;;;1999.90;999.90;;;;;;;10.63;86.86;97794.38;5131747;27;20492;-81
2023/04/20 08:53:32;;;;;;;1999.90;999.90;;;;;;;10.63;87.48;97791.66;5138773;27;20037;-77
2023/04/20 08:55:58;;;;;;;1999.90;999.90;;;;;;;10.66;86.85;97782.84;5134292;27;20026;-76
2023/04/20 08:58:24;;;;;;;1999.90;999.90;;;;;;;10.69;87.25;97798.66;5152783;27;20038;-75
2023/04/20 09:00:50;;;;;;;1999.90;999.90;;;;;;;10.69;87.27;97801.41;5152414;27;20037;-76
2023/04/20 09:03:15;;;;;;;1999.90;999.90;;;;;;;10.50;87.20;97786.94;5153285;27;20023;-76
2023/04/20 09:05:43;;;;;;;1999.90;999.90;;;;;;;10.59;86.45;97787.06;5132137;27;20380;-76
2023/04/20 09:08:08;;;;;;;1999.90;999.90;;;;;;;10.65;86.13;97792.16;5132182;27;20030;-75
2023/04/20 09:10:43;;;;;;;1999.90;999.90;;;;;;;10.70;86.28;97800.28;5132934;27;20051;-81
2023/04/20 09:13:23;;;;;;;1999.90;999.90;;;;;;;10.80;86.65;97790.28;5150048;27;20058;-79
2023/04/20 09:15:48;;;;;;;1999.90;999.90;;;;;;;10.82;84.83;97793.53;5152336;27;20031;-78
2023/04/20 09:18:14;;;;;;;1999.90;999.90;;;;;;;10.94;84.71;97802.06;5151524;27;20061;-77
2023/04/20 09:20:39;;;;;;;1999.90;999.90;;;;;;;11.11;83.85;97799.56;5151996;27;20030;-78
2023/04/20 09:23:13;;;;;;;1999.90;999.90;;;;;;;11.10;83.87;97800.66;5152156;27;20019;-75
2023/04/20 09:25:39;;;;;;;1999.90;999.90;;;;;;;11.52;82.46;97796.84;5151897;27;20022;-75
2023/04/20 09:28:05;;;;;;;1999.90;999.90;;;;;;;11.47;81.83;97792.25;5152422;27;20022;-78
2023/04/20 09:30:45;;;;;;;1999.90;999.90;;;;;;;11.73;80.68;97798.06;5151816;27;20158;-76
2023/04/20 09:33:13;;;;;;;1999.90;999.90;;;;;;;11.62;80.19;97799.38;5152615;27;20467;-77
2023/04/20 09:35:40;;;;;;;1999.90;999.90;;;;;;;11.38;79.85;97793.28;5152115;27;20420;-77
2023/04/20 09:38:07;;;;;;;1999.90;999.90;;;;;;;11.40;81.13;97786.41;5152727;27;20178;-79
2023/04/20 09:40:32;;;;;;;1999.90;999.90;;;;;;;11.40;80.79;97794.63;5152460;27;20381;-76
2023/04/20 09:43:02;;;;;;;1999.90;999.90;;;;;;;11.25;83.34;97784.75;5133599;27;20030;-76
2023/04/20 09:45:28;;;;;;;1999.90;999.90;;;;;;;11.30;81.68;97783.84;5153164;27;20058;-78
2023/04/20 09:47:54;;;;;;;1999.90;999.90;;;;;;;11.23;82.42;97783.44;5129558;27;20443;-79
2023/04/20 09:50:20;;;;;;;1999.90;999.90;;;;;;;11.40;81.16;97780.94;5125812;28;20031;-75
2023/04/20 09:52:48;;;;;;;1999.90;999.90;;;;;;;11.51;80.79;97776.84;5132364;28;20107;-75
2023/04/20 09:55:14;;;;;;;1999.90;999.90;;;;;;;11.40;80.81;97783.66;5136601;27;20023;-78
2023/04/20 09:57:39;;;;;;;1999.90;999.90;;;;;;;11.58;81.66;97780.00;5140448;28;20382;-74
2023/04/20 10:00:06;;;;;;;1999.90;999.90;;;;;;;11.75;78.42;97782.94;5132894;28;20816;-75
2023/04/20 10:02:32;;;;;;;1999.90;999.90;;;;;;;11.82;78.10;97785.25;5132176;28;20050;-76
2023/04/20 10:05:00;;;;;;;1999.90;999.90;;;;;;;11.77;79.68;97786.19;5132519;28;20027;-75
2023/04/20 10:07:30;;;;;;;1999.90;999.90;;;;;;;11.99;77.34;97785.44;5133644;28;20492;-77
2023/04/20 10:10:14;;;;;;;1999.90;999.90;;;;;;;12.13;77.49;97793.59;5131798;27;20797;-76
2023/04/20 10:13:06;;;;;;;1999.90;999.90;;;;;;;12.09;75.74;97793.41;5131620;27;20027;-76
2023/04/20 10:15:41;;;;;;;1999.90;999.90;;;;;;;12.03;76.16;97799.34;5128251;28;20053;-74
2023/04/20 10:18:22;;;;;;;1999.90;999.90;;;;;;;11.90;76.19;97797.44;5131047;28;20012;-75
2023/04/20 10:20:50;;;;;;;1999.90;999.90;;;;;;;11.94;75.73;97792.94;5131274;28;20119;-77
2023/04/20 10:23:17;;;;;;;1999.90;999.90;;;;;;;12.15;75.44;97796.88;5131061;28;20075;-76
2023/04/20 10:25:54;;;;;;;1999.90;999.90;;;;;;;12.58;74.20;97792.53;5130973;28;20428;-73
2023/04/20 10:28:20;;;;;;;1999.90;999.90;;;;;;;12.85;71.48;97794.31;5131467;28;20415;-76
2023/04/20 10:30:51;;;;;;;1999.90;999.90;;;;;;;12.40;72.36;97792.72;5115183;27;20034;-76
2023/04/20 10:33:16;;;;;;;1999.90;999.90;;;;;;;12.71;72.04;97772.44;5135474;27;20050;-76
2023/04/20 10:35:47;;;;;;;1999.90;999.90;;;;;;;13.02;70.29;97791.66;5117268;27;20059;-75
2023/04/20 10:38:12;;;;;;;1999.90;999.90;;;;;;;13.02;70.11;97786.19;5136143;27;20027;-75
2023/04/20 10:40:38;;;;;;;1999.90;999.90;;;;;;;13.05;69.59;97787.47;5135352;27;20038;-76
2023/04/20 10:43:03;;;;;;;1999.90;999.90;;;;;;;13.14;70.18;97782.88;5135131;27;20030;-77
2023/04/20 10:45:37;;;;;;;1999.90;999.90;;;;;;;13.28;69.07;97792.63;5116787;27;20463;-75
2023/04/20 10:48:09;;;;;;;1999.90;999.90;;;;;;;12.97;68.34;97780.81;5116418;27;20037;-73